الصفحة الرئيسية
METAR-TAF:

METAR-TAF

مطار :

كورفو, اليونان

دائرة عرض: 39-37N, خط طول: 019-55E, ارتفاع: 2 متر

مراقبة الطقس الحالي

تاريخ ووقت الإصدار 38 دقيقة قبل الساعة 00:20UTC
رياح هادئة
درجة الحرارة 10°درجة مئوية
الرطوبة 87%
ضغط 1012 hPa
الرؤية 10 كم أو أكثر
الغيوم لا تقل 1500 م ولا وجود لمزنة ركامية السحاب الأسود

METAR: LGKR 290020Z 00000KT CAVOK 10/08 Q1012 NOSIG

زمن: 02:58 (00:58 UTC)

توقعات

تاريخ ووقت الإصدار 1ساعة و 58 دقيقة قبل الساعة 23:00UTC
التوقعات صالحة من29 الساعة 00 UTC إلى 29 الساعة 24 UTC
ريح 5 عقدةمن اتجاهات متغيرة
الرؤية 10 كم أو أكثر
غيوم قليلة على ارتفاع 2000 قدم
غيوم متفرقة على ارتفاع 8000 قدم
نظرية الاحتمالات 30% :
مؤقت
من 29 الساعة 00 UTC إلى 29 الساعة 12 UTC
الرؤية: 5000 متر
غيوم متفرقة على ارتفاع 1500 قدم
غيوم قليلة على ارتفاع 1800 قدم, مزنة ركامية.
غيوم مفككة على ارتفاع 7000 قدم
زخات من المطر
أصبح
من 29 الساعة 10 UTC إلى 29 الساعة 12 UTC
ريح 10 عقدة من الشمال الغربي

TAF: LGKR 282300Z 2900/2924 VRB05KT 9999 FEW020 SCT080 PROB30 TEMPO 2900/2912 5000 SHRA SCT015 FEW018CB BKN070 BECMG 2910/2912 32010KT

أرصاد الطقس والتوقعات من أكثر من 4000 مطار (تقارير الطقس للمطار METAR والتنبؤ بالطقس بالمطارTAF).

المحطات المتاحة هي النقط الصفراء والحمراء على الخريطة.

حرك المؤشر فوق النقطة لمعرفة اسم المحطة.

ثم انقر لمعرفة أرصاد وتوقعات الطقس.

لتغيير الخارطة: اضغط على الأزرار الخضراء مع رمز الصليب الأسود للتكبير. على الزر الأخضر مع شرطة للتصغير، أو على الأسهم الخضراء للخرائط المجاورة.


METAR-TAF: